createdAt,value
2018-02-21T00:00:09.858Z,922.46
2018-02-21T00:00:22.447Z,922.46
2018-02-21T00:00:34.978Z,922.46
2018-02-21T00:00:48.051Z,922.49
2018-02-21T00:01:00.689Z,922.46
2018-02-21T00:01:13.747Z,922.47
2018-02-21T00:01:26.414Z,922.46
2018-02-21T00:01:38.957Z,922.46
2018-02-21T00:01:51.975Z,922.42
2018-02-21T00:02:05.006Z,922.42
2018-02-21T00:02:17.528Z,922.45
2018-02-21T00:02:30.594Z,922.43
2018-02-21T00:02:43.680Z,922.41
2018-02-21T00:02:55.763Z,922.43
2018-02-21T00:03:08.789Z,922.43
2018-02-21T00:03:22.258Z,922.41
2018-02-21T00:03:34.808Z,922.4
2018-02-21T00:03:47.413Z,922.43
2018-02-21T00:03:59.974Z,922.4
2018-02-21T00:04:12.973Z,922.46
2018-02-21T00:04:25.532Z,922.43
2018-02-21T00:04:37.149Z,922.42
2018-02-21T00:04:50.223Z,922.44
2018-02-21T00:05:03.211Z,922.44
2018-02-21T00:05:16.245Z,922.45
2018-02-21T00:05:28.787Z,922.42
2018-02-21T00:05:41.806Z,922.44
2018-02-21T00:05:53.824Z,922.43
2018-02-21T00:06:06.819Z,922.43
2018-02-21T00:06:19.436Z,922.42
2018-02-21T00:06:32.434Z,922.41
2018-02-21T00:06:45.446Z,922.46
2018-02-21T00:06:57.956Z,922.46
2018-02-21T00:07:10.945Z,922.43
2018-02-21T00:07:23.943Z,922.42
2018-02-21T00:07:36.964Z,922.46
2018-02-21T00:07:49.992Z,922.39
2018-02-21T00:08:02.521Z,922.4
2018-02-21T00:08:15.524Z,922.41
2018-02-21T00:08:28.567Z,922.38
2018-02-21T00:08:41.597Z,922.39
2018-02-21T00:08:54.108Z,922.43
2018-02-21T00:09:07.194Z,922.39
2018-02-21T00:09:20.212Z,922.4
2018-02-21T00:09:32.756Z,922.4
2018-02-21T00:09:45.832Z,922.42
2018-02-21T00:09:58.845Z,922.4
2018-02-21T00:10:11.360Z,922.41
2018-02-21T00:10:24.391Z,922.43
2018-02-21T00:10:36.920Z,922.41
2018-02-21T00:10:49.441Z,922.43
2018-02-21T00:11:02.536Z,922.4
2018-02-21T00:11:15.577Z,922.43
2018-02-21T00:11:28.101Z,922.4
2018-02-21T00:11:41.124Z,922.42
2018-02-21T00:11:53.182Z,922.43
2018-02-21T00:12:06.208Z,922.38
2018-02-21T00:12:19.333Z,922.46
2018-02-21T00:12:31.902Z,922.41
2018-02-21T00:12:44.961Z,922.43
2018-02-21T00:12:57.988Z,922.42
2018-02-21T00:13:10.519Z,922.43
2018-02-21T00:13:23.594Z,922.44
2018-02-21T00:13:36.721Z,922.43
2018-02-21T00:13:49.778Z,922.44
2018-02-21T00:14:01.854Z,922.43
2018-02-21T00:14:14.880Z,922.46
2018-02-21T00:14:27.414Z,922.44
2018-02-21T00:14:40.405Z,922.48
2018-02-21T00:14:52.998Z,922.49
2018-02-21T00:15:06.021Z,922.4
2018-02-21T00:15:19.019Z,922.46
2018-02-21T00:15:32.004Z,922.47
2018-02-21T00:15:44.548Z,922.49
2018-02-21T00:15:57.608Z,922.48
2018-02-21T00:16:09.707Z,922.49
2018-02-21T00:16:22.239Z,922.48
2018-02-21T00:16:35.241Z,922.49
2018-02-21T00:16:47.772Z,922.48
2018-02-21T00:17:00.375Z,922.53
2018-02-21T00:17:13.380Z,922.52
2018-02-21T00:17:25.471Z,922.51
2018-02-21T00:17:38.491Z,922.51
2018-02-21T00:17:51.561Z,922.58
2018-02-21T00:18:04.125Z,922.56
2018-02-21T00:18:17.176Z,922.55
2018-02-21T00:18:29.717Z,922.57
2018-02-21T00:18:42.783Z,922.57
2018-02-21T00:18:55.847Z,922.53
2018-02-21T00:19:08.474Z,922.57
2018-02-21T00:19:21.503Z,922.55
2018-02-21T00:19:34.540Z,922.56
2018-02-21T00:19:47.552Z,922.6
2018-02-21T00:20:00.601Z,922.61
2018-02-21T00:20:13.196Z,922.56
2018-02-21T00:20:25.751Z,922.58
2018-02-21T00:20:38.800Z,922.58
2018-02-21T00:20:51.808Z,922.59
2018-02-21T00:21:04.370Z,922.6
2018-02-21T00:21:17.438Z,922.62
2018-02-21T00:21:30.458Z,922.61
2018-02-21T00:21:43.456Z,922.61
2018-02-21T00:21:56.539Z,922.62
2018-02-21T00:22:09.057Z,922.57
2018-02-21T00:22:21.639Z,922.57
2018-02-21T00:22:34.314Z,922.6
2018-02-21T00:22:47.504Z,922.63
2018-02-21T00:23:00.539Z,922.64
2018-02-21T00:23:13.578Z,922.6
2018-02-21T00:23:26.568Z,922.62
2018-02-21T00:23:37.690Z,922.61
2018-02-21T00:23:50.756Z,922.61
2018-02-21T00:24:03.809Z,922.63
2018-02-21T00:24:15.884Z,922.57
2018-02-21T00:24:28.859Z,922.62
2018-02-21T00:24:41.896Z,922.63
2018-02-21T00:24:53.955Z,922.63
2018-02-21T00:25:06.512Z,922.64
2018-02-21T00:25:19.080Z,922.6
2018-02-21T00:25:31.175Z,922.62
2018-02-21T00:25:43.745Z,922.63
2018-02-21T00:25:56.764Z,922.64
2018-02-21T00:26:09.327Z,922.61
2018-02-21T00:26:22.359Z,922.64
2018-02-21T00:26:34.890Z,922.59
2018-02-21T00:26:47.928Z,922.6
2018-02-21T00:27:00.509Z,922.57
2018-02-21T00:27:12.620Z,922.6
2018-02-21T00:27:25.628Z,922.62
2018-02-21T00:27:38.668Z,922.61
2018-02-21T00:27:51.706Z,922.63
2018-02-21T00:28:04.680Z,922.62
2018-02-21T00:28:17.265Z,922.67
2018-02-21T00:28:29.853Z,922.65
2018-02-21T00:28:42.858Z,922.66
2018-02-21T00:28:55.393Z,922.66
2018-02-21T00:29:08.432Z,922.65
2018-02-21T00:29:21.439Z,922.7
2018-02-21T00:29:33.959Z,922.69
2018-02-21T00:29:46.594Z,922.67
2018-02-21T00:29:59.594Z,922.7
2018-02-21T00:30:12.702Z,922.67
2018-02-21T00:30:25.208Z,922.68
2018-02-21T00:30:37.812Z,922.71
2018-02-21T00:30:50.861Z,922.72
2018-02-21T00:31:03.432Z,922.72
2018-02-21T00:31:16.028Z,922.73
2018-02-21T00:31:28.603Z,922.73
2018-02-21T00:31:41.168Z,922.73
2018-02-21T00:31:53.722Z,922.71
2018-02-21T00:32:06.268Z,922.72
2018-02-21T00:32:19.320Z,922.74
2018-02-21T00:32:31.851Z,922.71
2018-02-21T00:32:44.861Z,922.67
2018-02-21T00:32:57.398Z,922.72
2018-02-21T00:33:10.415Z,922.74
2018-02-21T00:33:23.497Z,922.73
2018-02-21T00:33:36.017Z,922.69
2018-02-21T00:33:49.073Z,922.73
2018-02-21T00:34:01.133Z,922.72
2018-02-21T00:34:14.152Z,922.72
2018-02-21T00:34:27.198Z,922.7
2018-02-21T00:34:39.311Z,922.7
2018-02-21T00:34:52.356Z,922.7
2018-02-21T00:35:04.926Z,922.7
2018-02-21T00:35:17.496Z,922.71
2018-02-21T00:35:30.055Z,922.7
2018-02-21T00:35:43.103Z,922.65
2018-02-21T00:35:56.107Z,922.71
2018-02-21T00:36:09.132Z,922.71
2018-02-21T00:36:22.170Z,922.69
2018-02-21T00:36:35.259Z,922.7
2018-02-21T00:36:47.782Z,922.7
2018-02-21T00:37:00.321Z,922.72
2018-02-21T00:37:13.360Z,922.72
2018-02-21T00:37:25.890Z,922.71
2018-02-21T00:37:38.457Z,922.69
2018-02-21T00:37:51.483Z,922.71
2018-02-21T00:38:04.025Z,922.75
2018-02-21T00:38:17.042Z,922.75
2018-02-21T00:38:30.095Z,922.74
2018-02-21T00:38:43.183Z,922.73
2018-02-21T00:38:56.153Z,922.74
2018-02-21T00:39:08.753Z,922.71
2018-02-21T00:39:20.863Z,922.73
2018-02-21T00:39:33.872Z,922.73
2018-02-21T00:39:46.902Z,922.75
2018-02-21T00:39:59.963Z,922.73
2018-02-21T00:40:12.503Z,922.7
2018-02-21T00:40:25.507Z,922.72
2018-02-21T00:40:38.025Z,922.71
2018-02-21T00:40:51.046Z,922.69
2018-02-21T00:41:04.093Z,922.73
2018-02-21T00:41:17.110Z,922.7
2018-02-21T00:41:30.131Z,922.7
2018-02-21T00:41:42.701Z,922.7
2018-02-21T00:41:55.689Z,922.71
2018-02-21T00:42:08.701Z,922.67
2018-02-21T00:42:21.702Z,922.67
2018-02-21T00:42:34.263Z,922.66
2018-02-21T00:42:47.267Z,922.65
2018-02-21T00:42:59.793Z,922.66
2018-02-21T00:43:12.826Z,922.64
2018-02-21T00:43:25.350Z,922.65
2018-02-21T00:43:37.925Z,922.66
2018-02-21T00:43:50.909Z,922.64
2018-02-21T00:44:04.004Z,922.67
2018-02-21T00:44:16.628Z,922.63
2018-02-21T00:44:29.202Z,922.62
2018-02-21T00:44:42.198Z,922.67
2018-02-21T00:44:55.267Z,922.65
2018-02-21T00:45:08.271Z,922.65
2018-02-21T00:45:21.301Z,922.64
2018-02-21T00:45:33.839Z,922.63
2018-02-21T00:45:46.404Z,922.63
2018-02-21T00:45:59.443Z,922.67
2018-02-21T00:46:12.412Z,922.65
2018-02-21T00:46:25.388Z,922.63
2018-02-21T00:46:37.492Z,922.66
2018-02-21T00:46:49.589Z,922.65
2018-02-21T00:47:02.610Z,922.63
2018-02-21T00:47:15.657Z,922.6
2018-02-21T00:47:28.214Z,922.65
2018-02-21T00:47:41.230Z,922.66
2018-02-21T00:47:53.788Z,922.67
2018-02-21T00:48:06.363Z,922.65
2018-02-21T00:48:19.359Z,922.66
2018-02-21T00:48:31.900Z,922.65
2018-02-21T00:48:45.808Z,922.66
2018-02-21T00:48:58.363Z,922.62
2018-02-21T00:49:10.920Z,922.65
2018-02-21T00:49:23.482Z,922.64
2018-02-21T00:49:36.468Z,922.64
2018-02-21T00:49:49.015Z,922.63
2018-02-21T00:50:02.040Z,922.65
2018-02-21T00:50:14.564Z,922.67
2018-02-21T00:50:27.108Z,922.66
2018-02-21T00:50:39.666Z,922.64
2018-02-21T00:50:52.169Z,922.64
2018-02-21T00:51:04.779Z,922.64
2018-02-21T00:51:17.835Z,922.63
2018-02-21T00:51:30.842Z,922.67
2018-02-21T00:51:43.877Z,922.66
2018-02-21T00:51:56.931Z,922.64
2018-02-21T00:52:10.193Z,922.63
2018-02-21T00:52:23.244Z,922.64
2018-02-21T00:52:36.272Z,922.62
2018-02-21T00:52:49.291Z,922.62
2018-02-21T00:53:01.881Z,922.62
2018-02-21T00:53:13.960Z,922.6
2018-02-21T00:53:26.536Z,922.6
2018-02-21T00:53:39.661Z,922.61
2018-02-21T00:53:52.669Z,922.6
2018-02-21T00:54:05.685Z,922.64
2018-02-21T00:54:18.738Z,922.63
2018-02-21T00:54:31.785Z,922.61
2018-02-21T00:54:44.770Z,922.59
2018-02-21T00:54:57.808Z,922.57
2018-02-21T00:55:10.815Z,922.58
2018-02-21T00:55:23.833Z,922.61
2018-02-21T00:55:36.365Z,922.57
2018-02-21T00:55:48.437Z,922.57
2018-02-21T00:56:00.998Z,922.6
2018-02-21T00:56:13.549Z,922.57
2018-02-21T00:56:26.143Z,922.57
2018-02-21T00:56:39.168Z,922.61
2018-02-21T00:56:52.212Z,922.56
2018-02-21T00:57:05.238Z,922.55
2018-02-21T00:57:18.291Z,922.57
2018-02-21T00:57:31.344Z,922.56
2018-02-21T00:57:43.426Z,922.57
2018-02-21T00:57:56.418Z,922.59
2018-02-21T00:58:08.498Z,922.56
2018-02-21T00:58:21.510Z,922.58
2018-02-21T00:58:34.486Z,922.63
2018-02-21T00:58:46.972Z,922.57
2018-02-21T00:58:59.938Z,922.59
2018-02-21T00:59:12.492Z,922.59
2018-02-21T00:59:25.095Z,922.58
2018-02-21T00:59:38.067Z,922.58
2018-02-21T00:59:50.674Z,922.56
2018-02-21T01:00:03.728Z,922.59
2018-02-21T01:00:16.308Z,922.57
2018-02-21T01:00:29.358Z,922.57
2018-02-21T01:00:42.387Z,922.58
2018-02-21T01:00:54.985Z,922.57
2018-02-21T01:01:07.996Z,922.55
2018-02-21T01:01:21.072Z,922.56
2018-02-21T01:01:34.109Z,922.54
2018-02-21T01:01:47.185Z,922.55
2018-02-21T01:02:00.221Z,922.56
2018-02-21T01:02:12.797Z,922.54
2018-02-21T01:02:25.302Z,922.56
2018-02-21T01:02:37.829Z,922.54
2018-02-21T01:02:50.397Z,922.57
2018-02-21T01:03:03.412Z,922.56
2018-02-21T01:03:16.539Z,922.58
2018-02-21T01:03:29.125Z,922.59
2018-02-21T01:03:42.126Z,922.58
2018-02-21T01:03:54.664Z,922.56
2018-02-21T01:04:06.733Z,922.58
2018-02-21T01:04:19.306Z,922.58
2018-02-21T01:04:31.830Z,922.6
2018-02-21T01:04:44.896Z,922.6
2018-02-21T01:04:57.959Z,922.59
2018-02-21T01:05:10.466Z,922.61
2018-02-21T01:05:22.123Z,922.57
2018-02-21T01:05:33.710Z,922.58
2018-02-21T01:05:46.732Z,922.56
2018-02-21T01:05:59.783Z,922.61
2018-02-21T01:06:12.864Z,922.6
2018-02-21T01:06:25.385Z,922.59
2018-02-21T01:06:37.449Z,922.63
2018-02-21T01:06:50.455Z,922.59
2018-02-21T01:07:03.472Z,922.6
2018-02-21T01:07:16.035Z,922.59
2018-02-21T01:07:29.096Z,922.61
2018-02-21T01:07:42.107Z,922.61
2018-02-21T01:07:55.136Z,922.58
2018-02-21T01:08:07.720Z,922.63
2018-02-21T01:08:19.814Z,922.61
2018-02-21T01:08:31.932Z,922.61
2018-02-21T01:08:44.997Z,922.6
2018-02-21T01:08:57.516Z,922.63
2018-02-21T01:09:10.559Z,922.65
2018-02-21T01:09:23.584Z,922.62
2018-02-21T01:09:36.593Z,922.6
2018-02-21T01:09:49.597Z,922.62
2018-02-21T01:10:01.695Z,922.61
2018-02-21T01:10:14.235Z,922.6
2018-02-21T01:10:26.786Z,922.57
2018-02-21T01:10:39.824Z,922.59
2018-02-21T01:10:52.386Z,922.57
2018-02-21T01:11:05.425Z,922.59
2018-02-21T01:11:18.022Z,922.62
2018-02-21T01:11:31.074Z,922.63
2018-02-21T01:11:44.067Z,922.61
2018-02-21T01:11:56.614Z,922.62
2018-02-21T01:12:09.634Z,922.61
2018-02-21T01:12:22.213Z,922.61
2018-02-21T01:12:34.782Z,922.67
2018-02-21T01:12:47.809Z,922.62
2018-02-21T01:13:00.790Z,922.6
2018-02-21T01:13:13.350Z,922.63
2018-02-21T01:13:25.875Z,922.63
2018-02-21T01:13:38.433Z,922.63
2018-02-21T01:13:51.455Z,922.63
2018-02-21T01:14:04.049Z,922.63
2018-02-21T01:14:17.055Z,922.6
2018-02-21T01:14:30.049Z,922.59
2018-02-21T01:14:43.094Z,922.63
2018-02-21T01:14:56.099Z,922.64
2018-02-21T01:15:09.106Z,922.63
2018-02-21T01:15:21.704Z,922.6
2018-02-21T01:15:34.223Z,922.6
2018-02-21T01:15:46.800Z,922.63
2018-02-21T01:15:59.842Z,922.62
2018-02-21T01:16:12.436Z,922.59
2018-02-21T01:16:24.984Z,922.61
2018-02-21T01:16:38.033Z,922.63
2018-02-21T01:16:50.587Z,922.63
2018-02-21T01:17:03.173Z,922.62
2018-02-21T01:17:15.764Z,922.63
2018-02-21T01:17:28.310Z,922.61
2018-02-21T01:17:40.891Z,922.7
2018-02-21T01:17:53.852Z,922.65
2018-02-21T01:18:06.449Z,922.65
2018-02-21T01:18:19.451Z,922.65
2018-02-21T01:18:32.476Z,922.65
2018-02-21T01:18:46.457Z,922.66
2018-02-21T01:18:59.455Z,922.69
2018-02-21T01:19:12.014Z,922.64
2018-02-21T01:19:25.039Z,922.65
2018-02-21T01:19:38.123Z,922.65
2018-02-21T01:19:51.176Z,922.66
2018-02-21T01:20:03.235Z,922.65
2018-02-21T01:20:15.335Z,922.64
2018-02-21T01:20:28.331Z,922.67
2018-02-21T01:20:40.899Z,922.65
2018-02-21T01:20:53.878Z,922.66
2018-02-21T01:21:06.945Z,922.67
2018-02-21T01:21:19.499Z,922.71
2018-02-21T01:21:32.078Z,922.71
2018-02-21T01:21:44.163Z,922.71
2018-02-21T01:21:55.744Z,922.72
2018-02-21T01:22:08.347Z,922.7
2018-02-21T01:22:21.415Z,922.73
2018-02-21T01:22:34.445Z,922.71
2018-02-21T01:22:47.002Z,922.69
2018-02-21T01:23:00.041Z,922.72
2018-02-21T01:23:12.565Z,922.72
2018-02-21T01:23:25.214Z,922.76
2018-02-21T01:23:38.246Z,922.77
2018-02-21T01:23:51.297Z,922.73
2018-02-21T01:24:04.343Z,922.73
2018-02-21T01:24:17.380Z,922.75
2018-02-21T01:24:29.947Z,922.74
2018-02-21T01:24:42.490Z,922.75
2018-02-21T01:24:55.507Z,922.76
2018-02-21T01:25:08.096Z,922.76
2018-02-21T01:25:20.674Z,922.77
2018-02-21T01:25:33.270Z,922.75
2018-02-21T01:25:46.292Z,922.76
2018-02-21T01:25:58.836Z,922.76
2018-02-21T01:26:11.931Z,922.73
2018-02-21T01:26:24.462Z,922.77
2018-02-21T01:26:37.507Z,922.77
2018-02-21T01:26:50.022Z,922.77
2018-02-21T01:27:03.056Z,922.76
2018-02-21T01:27:16.064Z,922.74
2018-02-21T01:27:29.097Z,922.76
2018-02-21T01:27:41.168Z,922.74
2018-02-21T01:27:53.706Z,922.78
2018-02-21T01:28:05.978Z,922.76
2018-02-21T01:28:19.010Z,922.75
2018-02-21T01:28:31.585Z,922.79
2018-02-21T01:28:44.584Z,922.78
2018-02-21T01:28:57.172Z,922.79
2018-02-21T01:29:09.267Z,922.81
2018-02-21T01:29:22.340Z,922.8
2018-02-21T01:29:34.901Z,922.83
2018-02-21T01:29:47.920Z,922.82
2018-02-21T01:30:00.991Z,922.85
2018-02-21T01:30:12.624Z,922.83
2018-02-21T01:30:24.718Z,922.84
2018-02-21T01:30:37.728Z,922.84
2018-02-21T01:30:50.748Z,922.82
2018-02-21T01:31:03.758Z,922.82
2018-02-21T01:31:16.765Z,922.83
2018-02-21T01:31:29.797Z,922.85
2018-02-21T01:31:42.807Z,922.81
2018-02-21T01:31:55.840Z,922.82
2018-02-21T01:32:08.444Z,922.84
2018-02-21T01:32:21.030Z,922.82
2018-02-21T01:32:34.054Z,922.8
2018-02-21T01:32:47.091Z,922.79
2018-02-21T01:33:00.059Z,922.8
2018-02-21T01:33:12.601Z,922.8
2018-02-21T01:33:25.569Z,922.85
2018-02-21T01:33:38.092Z,922.84
2018-02-21T01:33:51.665Z,922.83
2018-02-21T01:34:04.206Z,922.81
2018-02-21T01:34:17.261Z,922.82
2018-02-21T01:34:29.763Z,922.83
2018-02-21T01:34:41.848Z,922.82
2018-02-21T01:34:54.977Z,922.84
2018-02-21T01:35:08.014Z,922.85
2018-02-21T01:35:21.090Z,922.87
2018-02-21T01:35:33.676Z,922.85
2018-02-21T01:35:46.688Z,922.83
2018-02-21T01:35:59.263Z,922.82
2018-02-21T01:36:12.316Z,922.8
2018-02-21T01:36:25.341Z,922.84
2018-02-21T01:36:36.945Z,922.83
2018-02-21T01:36:49.014Z,922.84
2018-02-21T01:37:02.025Z,922.81
2018-02-21T01:37:15.039Z,922.79
2018-02-21T01:37:27.512Z,922.85
2018-02-21T01:37:40.096Z,922.81
2018-02-21T01:37:53.067Z,922.84
2018-02-21T01:38:06.108Z,922.8
2018-02-21T01:38:19.091Z,922.83
2018-02-21T01:38:31.184Z,922.84
2018-02-21T01:38:44.159Z,922.85
2018-02-21T01:38:57.177Z,922.85
2018-02-21T01:39:09.773Z,922.87
2018-02-21T01:39:22.795Z,922.86
2018-02-21T01:39:35.843Z,922.89
2018-02-21T01:39:48.902Z,922.86
2018-02-21T01:40:01.939Z,922.88
2018-02-21T01:40:14.963Z,922.87
2018-02-21T01:40:27.946Z,922.87
2018-02-21T01:40:41.026Z,922.88
2018-02-21T01:40:54.076Z,922.87
2018-02-21T01:41:07.050Z,922.88
2018-02-21T01:41:20.027Z,922.87
2018-02-21T01:41:32.621Z,922.88
2018-02-21T01:41:45.680Z,922.88
2018-02-21T01:41:58.250Z,922.89
2018-02-21T01:42:09.846Z,922.87
2018-02-21T01:42:22.446Z,922.89
2018-02-21T01:42:34.475Z,922.85
2018-02-21T01:42:47.007Z,922.89
2018-02-21T01:42:59.489Z,922.88
2018-02-21T01:43:12.541Z,922.9
2018-02-21T01:43:25.628Z,922.87
2018-02-21T01:43:38.197Z,922.9
2018-02-21T01:43:51.244Z,922.88
2018-02-21T01:44:03.809Z,922.89
2018-02-21T01:44:16.875Z,922.87
2018-02-21T01:44:29.456Z,922.86
2018-02-21T01:44:42.479Z,922.88
2018-02-21T01:44:55.493Z,922.87
2018-02-21T01:45:08.512Z,922.9
2018-02-21T01:45:21.508Z,922.87
2018-02-21T01:45:34.085Z,922.88
2018-02-21T01:45:46.236Z,922.85
2018-02-21T01:45:59.298Z,922.9
2018-02-21T01:46:12.272Z,922.86
2018-02-21T01:46:25.346Z,922.89
2018-02-21T01:46:38.386Z,922.89
2018-02-21T01:46:51.393Z,922.9
2018-02-21T01:47:04.394Z,922.89
2018-02-21T01:47:17.444Z,922.92
2018-02-21T01:47:29.994Z,922.93
2018-02-21T01:47:43.015Z,922.91
2018-02-21T01:47:56.016Z,922.9
2018-02-21T01:48:08.991Z,922.9
2018-02-21T01:48:21.504Z,922.91
2018-02-21T01:48:34.072Z,922.92
2018-02-21T01:48:47.137Z,922.96
2018-02-21T01:49:00.496Z,922.94
2018-02-21T01:49:12.105Z,922.92
2018-02-21T01:49:25.144Z,922.91
2018-02-21T01:49:37.685Z,922.97
2018-02-21T01:49:50.205Z,922.98
2018-02-21T01:50:03.240Z,922.95
2018-02-21T01:50:15.308Z,922.97
2018-02-21T01:50:28.330Z,923
2018-02-21T01:50:39.920Z,922.91
2018-02-21T01:50:52.470Z,922.97
2018-02-21T01:51:04.568Z,922.95
2018-02-21T01:51:17.662Z,922.96
2018-02-21T01:51:30.249Z,922.95
2018-02-21T01:51:43.318Z,922.95
2018-02-21T01:51:56.381Z,922.95
2018-02-21T01:52:09.396Z,922.98
2018-02-21T01:52:22.410Z,922.99
2018-02-21T01:52:34.988Z,923.02
2018-02-21T01:52:48.020Z,922.98
2018-02-21T01:53:01.017Z,922.97
2018-02-21T01:53:14.052Z,923
2018-02-21T01:53:26.619Z,923.01
2018-02-21T01:53:39.165Z,922.98
2018-02-21T01:53:52.174Z,922.99
2018-02-21T01:54:05.228Z,923
2018-02-21T01:54:18.334Z,923.01
2018-02-21T01:54:30.438Z,922.97
2018-02-21T01:54:43.443Z,922.99
2018-02-21T01:54:56.449Z,922.99
2018-02-21T01:55:09.005Z,923
2018-02-21T01:55:22.013Z,923
2018-02-21T01:55:35.078Z,923.01
2018-02-21T01:55:48.041Z,922.98
2018-02-21T01:56:00.586Z,923
2018-02-21T01:56:13.163Z,923.01
2018-02-21T01:56:26.115Z,922.98
2018-02-21T01:56:38.704Z,923.01
2018-02-21T01:56:51.734Z,923.02
2018-02-21T01:57:04.758Z,923.02
2018-02-21T01:57:17.328Z,923.01
2018-02-21T01:57:30.325Z,923.03
2018-02-21T01:57:42.886Z,923.02
2018-02-21T01:57:55.942Z,923.04
2018-02-21T01:58:08.479Z,923.06
2018-02-21T01:58:21.001Z,922.99
2018-02-21T01:58:33.084Z,923.04
2018-02-21T01:58:45.675Z,923.08
2018-02-21T01:58:58.194Z,923.01
2018-02-21T01:59:10.801Z,923.05
2018-02-21T01:59:23.890Z,923.05
2018-02-21T01:59:36.943Z,923.04
2018-02-21T01:59:50.009Z,923.02
2018-02-21T02:00:03.070Z,923.02
2018-02-21T02:00:16.085Z,923
2018-02-21T02:00:28.606Z,923.06
2018-02-21T02:00:41.142Z,923.08
2018-02-21T02:00:54.146Z,923.06
2018-02-21T02:01:07.181Z,923.05
2018-02-21T02:01:19.723Z,923.05
2018-02-21T02:01:32.740Z,923.11
2018-02-21T02:01:45.277Z,923.09
2018-02-21T02:01:58.335Z,923.09
2018-02-21T02:02:10.459Z,923.09
2018-02-21T02:02:23.474Z,923.05
2018-02-21T02:02:36.060Z,923.03
2018-02-21T02:02:49.112Z,923.08
2018-02-21T02:03:02.132Z,923.09
2018-02-21T02:03:15.151Z,923.08
2018-02-21T02:03:28.166Z,923.08
2018-02-21T02:03:41.197Z,923.12
2018-02-21T02:03:53.300Z,923.14
2018-02-21T02:04:06.692Z,923.1
2018-02-21T02:04:19.241Z,923.08
2018-02-21T02:04:31.332Z,923.06
2018-02-21T02:04:44.326Z,923.06
2018-02-21T02:04:57.339Z,923.08
2018-02-21T02:05:10.360Z,923.06
2018-02-21T02:05:23.399Z,923.05
2018-02-21T02:05:36.434Z,923.07
2018-02-21T02:05:49.453Z,923.07
2018-02-21T02:06:01.494Z,923.12
2018-02-21T02:06:14.054Z,923.08
2018-02-21T02:06:27.100Z,923.08
2018-02-21T02:06:40.101Z,923.02
2018-02-21T02:06:53.100Z,923
2018-02-21T02:07:06.154Z,923
2018-02-21T02:07:18.205Z,923.04
2018-02-21T02:07:30.746Z,923.03
2018-02-21T02:07:43.720Z,923.01
2018-02-21T02:07:56.200Z,923.02
2018-02-21T02:08:09.191Z,923.04
2018-02-21T02:08:22.242Z,923
2018-02-21T02:08:35.305Z,923.02
2018-02-21T02:08:48.334Z,923.03
2018-02-21T02:09:01.371Z,922.99
2018-02-21T02:09:13.944Z,923.02
2018-02-21T02:09:26.994Z,923.03
2018-02-21T02:09:39.984Z,923.03
2018-02-21T02:09:53.000Z,923.02
2018-02-21T02:10:05.551Z,923.04
2018-02-21T02:10:18.077Z,923.03
2018-02-21T02:10:30.650Z,922.98
2018-02-21T02:10:43.220Z,922.99
2018-02-21T02:10:55.751Z,923.02
2018-02-21T02:11:08.323Z,923.01
2018-02-21T02:11:21.332Z,923.02
2018-02-21T02:11:34.354Z,923.01
2018-02-21T02:11:46.402Z,923.01
2018-02-21T02:11:58.950Z,923.01
2018-02-21T02:12:12.005Z,923.01
2018-02-21T02:12:25.038Z,923.01
2018-02-21T02:12:38.076Z,923.01
2018-02-21T02:12:50.627Z,923.02
2018-02-21T02:13:03.597Z,922.99
2018-02-21T02:13:16.112Z,923
2018-02-21T02:13:29.106Z,923
2018-02-21T02:13:42.107Z,923.01
2018-02-21T02:13:54.184Z,923.02
2018-02-21T02:14:06.287Z,923
2018-02-21T02:14:18.843Z,923.01
2018-02-21T02:14:30.999Z,923.01
2018-02-21T02:14:43.547Z,922.98
2018-02-21T02:14:56.576Z,923.01
2018-02-21T02:15:09.602Z,923
2018-02-21T02:15:21.711Z,922.97
2018-02-21T02:15:33.837Z,922.97
2018-02-21T02:15:46.847Z,922.95
2018-02-21T02:15:59.885Z,922.96
2018-02-21T02:16:12.879Z,922.98
2018-02-21T02:16:25.903Z,923
2018-02-21T02:16:38.958Z,923.01
2018-02-21T02:16:51.967Z,922.98
2018-02-21T02:17:04.052Z,922.98
2018-02-21T02:17:17.075Z,922.99
2018-02-21T02:17:30.139Z,922.97
2018-02-21T02:17:43.188Z,922.97
2018-02-21T02:17:55.778Z,922.98
2018-02-21T02:18:08.812Z,923
2018-02-21T02:18:21.379Z,923
2018-02-21T02:18:34.367Z,923
2018-02-21T02:18:47.414Z,923
2018-02-21T02:18:59.534Z,922.97
2018-02-21T02:19:12.409Z,922.98
2018-02-21T02:19:24.500Z,922.96
2018-02-21T02:19:37.578Z,922.97
2018-02-21T02:19:49.645Z,922.98
2018-02-21T02:20:02.622Z,922.98
2018-02-21T02:20:15.586Z,922.95
2018-02-21T02:20:28.616Z,922.94
2018-02-21T02:20:41.162Z,923
2018-02-21T02:20:54.254Z,922.95
2018-02-21T02:21:06.863Z,922.96
2018-02-21T02:21:19.905Z,922.95
2018-02-21T02:21:32.938Z,922.93
2018-02-21T02:21:45.906Z,922.94
2018-02-21T02:21:57.945Z,922.9
2018-02-21T02:22:09.554Z,922.95
2018-02-21T02:22:22.604Z,922.92
2018-02-21T02:22:35.137Z,922.93
2018-02-21T02:22:48.112Z,922.95
2018-02-21T02:23:01.177Z,922.95
2018-02-21T02:23:14.221Z,922.93
2018-02-21T02:23:26.774Z,922.91
2018-02-21T02:23:39.377Z,922.93
2018-02-21T02:23:52.400Z,922.89
2018-02-21T02:24:04.477Z,922.92
2018-02-21T02:24:17.455Z,922.92
2018-02-21T02:24:29.547Z,922.93
2018-02-21T02:24:42.600Z,922.9
2018-02-21T02:24:55.605Z,922.94
2018-02-21T02:25:07.666Z,922.94
2018-02-21T02:25:20.238Z,922.9
2018-02-21T02:25:33.215Z,922.9
2018-02-21T02:25:46.213Z,922.91
2018-02-21T02:25:58.778Z,922.92
2018-02-21T02:26:11.382Z,922.93
2018-02-21T02:26:24.403Z,922.91
2018-02-21T02:26:36.516Z,922.91
2018-02-21T02:26:49.548Z,922.9
2018-02-21T02:27:02.137Z,922.91
2018-02-21T02:27:15.163Z,922.89
2018-02-21T02:27:28.194Z,922.84
2018-02-21T02:27:41.183Z,922.83
2018-02-21T02:27:54.192Z,922.85
2018-02-21T02:28:07.204Z,922.89
2018-02-21T02:28:19.793Z,922.88
2018-02-21T02:28:32.327Z,922.87
2018-02-21T02:28:45.392Z,922.87
2018-02-21T02:28:57.476Z,922.87
2018-02-21T02:29:10.507Z,922.9
2018-02-21T02:29:23.531Z,922.84
2018-02-21T02:29:36.555Z,922.89
2018-02-21T02:29:49.577Z,922.88
2018-02-21T02:30:02.601Z,922.88
2018-02-21T02:30:15.604Z,922.91
2018-02-21T02:30:28.200Z,922.88
2018-02-21T02:30:40.766Z,922.9
2018-02-21T02:30:53.762Z,922.86
2018-02-21T02:31:06.743Z,922.87
2018-02-21T02:31:19.280Z,922.85
2018-02-21T02:31:32.319Z,922.89
2018-02-21T02:31:45.326Z,922.86
2018-02-21T02:31:58.372Z,922.86
2018-02-21T02:32:11.386Z,922.9
2018-02-21T02:32:23.993Z,922.8
2018-02-21T02:32:37.010Z,922.84
2018-02-21T02:32:50.031Z,922.84
2018-02-21T02:33:03.033Z,922.84
2018-02-21T02:33:16.020Z,922.85
2018-02-21T02:33:28.095Z,922.83
2018-02-21T02:33:41.109Z,922.85
2018-02-21T02:33:54.159Z,922.8
2018-02-21T02:34:06.699Z,922.83
2018-02-21T02:34:20.888Z,922.81
2018-02-21T02:34:33.428Z,922.83
2018-02-21T02:34:46.439Z,922.81
2018-02-21T02:34:59.444Z,922.8
2018-02-21T02:35:12.044Z,922.85
2018-02-21T02:35:24.613Z,922.85
2018-02-21T02:35:37.581Z,922.82
2018-02-21T02:35:50.158Z,922.83
2018-02-21T02:36:02.747Z,922.85
2018-02-21T02:36:15.807Z,922.81
2018-02-21T02:36:28.852Z,922.8
2018-02-21T02:36:41.882Z,922.81
2018-02-21T02:36:54.954Z,922.85
2018-02-21T02:37:08.016Z,922.87
2018-02-21T02:37:21.090Z,922.84
2018-02-21T02:37:34.127Z,922.8
2018-02-21T02:37:47.157Z,922.87
2018-02-21T02:37:59.835Z,922.87
2018-02-21T02:38:12.905Z,922.87
2018-02-21T02:38:25.934Z,922.85
2018-02-21T02:38:38.971Z,922.85
2018-02-21T02:38:51.588Z,922.8
2018-02-21T02:39:04.140Z,922.88
2018-02-21T02:39:16.710Z,922.83
2018-02-21T02:39:29.776Z,922.8
2018-02-21T02:39:42.814Z,922.83
2018-02-21T02:39:55.816Z,922.8
2018-02-21T02:40:08.890Z,922.8
2018-02-21T02:40:22.161Z,922.81